sensor_id;sensor_type;location;lat;lon;timestamp;pressure;altitude;pressure_sealevel;temperature;humidity
48386;BME280;34644;47.964;7.982;2023-05-16T00:02:23;96341.63;;;17.33;73.20
48386;BME280;34644;47.964;7.982;2023-05-16T00:09:23;96354.13;;;17.33;73.34
48386;BME280;34644;47.964;7.982;2023-05-16T00:16:23;96349.63;;;17.33;73.35
48386;BME280;34644;47.964;7.982;2023-05-16T00:23:24;96342.41;;;17.34;73.43
48386;BME280;34644;47.964;7.982;2023-05-16T00:30:25;96348.81;;;17.33;73.63
48386;BME280;34644;47.964;7.982;2023-05-16T00:37:25;96339.25;;;17.32;73.71
48386;BME280;34644;47.964;7.982;2023-05-16T00:44:27;96332.81;;;17.33;73.71
48386;BME280;34644;47.964;7.982;2023-05-16T00:51:28;96330.97;;;17.33;73.74
48386;BME280;34644;47.964;7.982;2023-05-16T00:58:29;96323.25;;;17.32;73.76
48386;BME280;34644;47.964;7.982;2023-05-16T01:05:31;96321.66;;;17.31;73.80
48386;BME280;34644;47.964;7.982;2023-05-16T01:19:54;96330.97;;;17.33;74.13
48386;BME280;34644;47.964;7.982;2023-05-16T01:26:54;96323.53;;;17.30;73.97
48386;BME280;34644;47.964;7.982;2023-05-16T01:33:55;96318.22;;;17.30;74.21
48386;BME280;34644;47.964;7.982;2023-05-16T01:47:58;96329.66;;;17.31;74.11
48386;BME280;34644;47.964;7.982;2023-05-16T01:55:00;96326.22;;;17.30;74.29
48386;BME280;34644;47.964;7.982;2023-05-16T02:02:02;96324.63;;;17.29;74.21
48386;BME280;34644;47.964;7.982;2023-05-16T02:09:04;96321.66;;;17.31;74.29
48386;BME280;34644;47.964;7.982;2023-05-16T02:16:04;96322.22;;;17.28;74.44
48386;BME280;34644;47.964;7.982;2023-05-16T02:23:04;96323.84;;;17.29;74.30
48386;BME280;34644;47.964;7.982;2023-05-16T02:30:06;96319.28;;;17.29;74.36
48386;BME280;34644;47.964;7.982;2023-05-16T02:37:06;96324.63;;;17.29;74.34
48386;BME280;34644;47.964;7.982;2023-05-16T02:44:06;96312.38;;;17.28;74.43
48386;BME280;34644;47.964;7.982;2023-05-16T02:51:07;96311.59;;;17.28;74.38
48386;BME280;34644;47.964;7.982;2023-05-16T02:58:07;96305.75;;;17.26;74.35
48386;BME280;34644;47.964;7.982;2023-05-16T03:05:07;96310.78;;;17.27;74.44
48386;BME280;34644;47.964;7.982;2023-05-16T03:12:08;96310.00;;;17.27;74.44
48386;BME280;34644;47.964;7.982;2023-05-16T03:19:09;96311.88;;;17.26;74.53
48386;BME280;34644;47.964;7.982;2023-05-16T03:26:09;96315.34;;;17.27;74.36
48386;BME280;34644;47.964;7.982;2023-05-16T03:33:10;96312.97;;;17.25;74.47
48386;BME280;34644;47.964;7.982;2023-05-16T03:40:10;96319.06;;;17.26;74.37
48386;BME280;34644;47.964;7.982;2023-05-16T03:47:11;96316.69;;;17.24;74.32
48386;BME280;34644;47.964;7.982;2023-05-16T03:54:11;96320.94;;;17.25;74.37
48386;BME280;34644;47.964;7.982;2023-05-16T04:01:12;96319.34;;;17.24;74.34
48386;BME280;34644;47.964;7.982;2023-05-16T04:08:12;96333.22;;;17.21;74.30
48386;BME280;34644;47.964;7.982;2023-05-16T04:15:12;96330.06;;;17.19;74.28
48386;BME280;34644;47.964;7.982;2023-05-16T04:22:12;96327.41;;;17.19;74.28
48386;BME280;34644;47.964;7.982;2023-05-16T04:29:13;96335.38;;;17.19;74.15
48386;BME280;34644;47.964;7.982;2023-05-16T04:36:13;96340.72;;;17.19;74.11
48386;BME280;34644;47.964;7.982;2023-05-16T04:43:14;96337.53;;;17.17;74.27
48386;BME280;34644;47.964;7.982;2023-05-16T04:50:14;96335.25;;;17.05;71.62
48386;BME280;34644;47.964;7.982;2023-05-16T04:57:15;96330.28;;;16.98;70.82
48386;BME280;34644;47.964;7.982;2023-05-16T05:04:15;96338.19;;;17.04;72.28
48386;BME280;34644;47.964;7.982;2023-05-16T05:11:16;96338.69;;;17.06;72.47
48386;BME280;34644;47.964;7.982;2023-05-16T05:18:17;96350.94;;;17.07;72.34
48386;BME280;34644;47.964;7.982;2023-05-16T05:25:18;96346.69;;;17.06;72.28
48386;BME280;34644;47.964;7.982;2023-05-16T05:32:18;96354.97;;;17.04;72.23
48386;BME280;34644;47.964;7.982;2023-05-16T05:39:18;96358.72;;;17.03;72.25
48386;BME280;34644;47.964;7.982;2023-05-16T05:46:18;96361.66;;;17.02;72.20
48386;BME280;34644;47.964;7.982;2023-05-16T05:53:19;96364.31;;;17.02;72.31
48386;BME280;34644;47.964;7.982;2023-05-16T06:00:19;96367.75;;;17.02;72.32
48386;BME280;34644;47.964;7.982;2023-05-16T06:07:19;96370.72;;;17.00;72.25
48386;BME280;34644;47.964;7.982;2023-05-16T06:14:20;96378.19;;;16.98;72.27
48386;BME280;34644;47.964;7.982;2023-05-16T06:21:20;96379.25;;;16.97;72.20
48386;BME280;34644;47.964;7.982;2023-05-16T06:28:20;96389.91;;;16.97;72.28
48386;BME280;34644;47.964;7.982;2023-05-16T06:35:21;96388.84;;;16.98;72.21
48386;BME280;34644;47.964;7.982;2023-05-16T06:42:22;96396.28;;;16.96;72.21
48386;BME280;34644;47.964;7.982;2023-05-16T06:49:23;96410.69;;;16.95;72.23
48386;BME280;34644;47.964;7.982;2023-05-16T06:56:23;96422.13;;;16.96;72.19
48386;BME280;34644;47.964;7.982;2023-05-16T07:03:24;96407.22;;;16.95;72.10
48386;BME280;34644;47.964;7.982;2023-05-16T07:10:24;96419.75;;;16.94;72.16
48386;BME280;34644;47.964;7.982;2023-05-16T07:17:26;96416.28;;;16.94;72.18
48386;BME280;34644;47.964;7.982;2023-05-16T07:24:26;96414.69;;;16.93;72.14
48386;BME280;34644;47.964;7.982;2023-05-16T07:31:26;96414.97;;;16.91;72.28
48386;BME280;34644;47.964;7.982;2023-05-16T07:38:27;96426.41;;;16.92;72.08
48386;BME280;34644;47.964;7.982;2023-05-16T07:45:27;96432.00;;;16.90;72.17
48386;BME280;34644;47.964;7.982;2023-05-16T07:52:27;96433.09;;;16.89;71.99
48386;BME280;34644;47.964;7.982;2023-05-16T07:59:28;96434.16;;;16.88;72.09
48386;BME280;34644;47.964;7.982;2023-05-16T08:06:28;96436.81;;;16.88;71.99
48386;BME280;34644;47.964;7.982;2023-05-16T08:13:28;96446.69;;;16.88;72.23
48386;BME280;34644;47.964;7.982;2023-05-16T08:20:29;96456.50;;;16.87;72.02
48386;BME280;34644;47.964;7.982;2023-05-16T08:27:29;96459.19;;;16.87;72.00
48386;BME280;34644;47.964;7.982;2023-05-16T08:34:30;96462.94;;;16.86;72.00
48386;BME280;34644;47.964;7.982;2023-05-16T08:41:30;96456.78;;;16.86;71.89
48386;BME280;34644;47.964;7.982;2023-05-16T08:48:31;96461.56;;;16.83;71.97
48386;BME280;34644;47.964;7.982;2023-05-16T08:55:32;96458.91;;;16.83;71.83
48386;BME280;34644;47.964;7.982;2023-05-16T09:02:32;96465.03;;;16.84;71.89
48386;BME280;34644;47.964;7.982;2023-05-16T09:09:32;96467.16;;;16.82;71.95
48386;BME280;34644;47.964;7.982;2023-05-16T09:16:33;96460.78;;;16.83;71.85
48386;BME280;34644;47.964;7.982;2023-05-16T09:23:33;96464.50;;;16.82;71.76
48386;BME280;34644;47.964;7.982;2023-05-16T09:30:34;96462.94;;;16.81;71.79
48386;BME280;34644;47.964;7.982;2023-05-16T09:37:34;96472.78;;;16.80;71.71
48386;BME280;34644;47.964;7.982;2023-05-16T09:44:34;96471.97;;;16.80;71.73
48386;BME280;34644;47.964;7.982;2023-05-16T09:51:34;96470.09;;;16.80;71.80
48386;BME280;34644;47.964;7.982;2023-05-16T09:58:36;96481.84;;;16.79;71.70
48386;BME280;34644;47.964;7.982;2023-05-16T10:05:37;96469.31;;;16.80;71.71
48386;BME280;34644;47.964;7.982;2023-05-16T10:12:37;96467.44;;;16.80;71.57
48386;BME280;34644;47.964;7.982;2023-05-16T10:19:38;96465.59;;;16.81;71.58
48386;BME280;34644;47.964;7.982;2023-05-16T10:26:39;96461.34;;;16.80;71.55
48386;BME280;34644;47.964;7.982;2023-05-16T10:33:39;96471.97;;;16.80;71.58
48386;BME280;34644;47.964;7.982;2023-05-16T10:40:40;96466.38;;;16.81;71.46
48386;BME280;34644;47.964;7.982;2023-05-16T10:47:41;96477.31;;;16.80;71.51
48386;BME280;34644;47.964;7.982;2023-05-16T10:54:50;96469.31;;;16.80;71.56
48386;BME280;34644;47.964;7.982;2023-05-16T11:01:51;96479.97;;;16.80;71.48
48386;BME280;34644;47.964;7.982;2023-05-16T11:16:27;96479.19;;;16.79;71.44
48386;BME280;34644;47.964;7.982;2023-05-16T11:23:28;96490.09;;;16.78;71.51
48386;BME280;34644;47.964;7.982;2023-05-16T11:30:29;96498.88;;;16.78;71.42
48386;BME280;34644;47.964;7.982;2023-05-16T11:37:29;96497.00;;;16.79;71.45
48386;BME280;34644;47.964;7.982;2023-05-16T11:44:29;96504.97;;;16.79;71.43
48386;BME280;34644;47.964;7.982;2023-05-16T11:51:30;96503.13;;;16.79;71.33
48386;BME280;34644;47.964;7.982;2023-05-16T11:58:31;96510.03;;;16.80;71.29
48386;BME280;34644;47.964;7.982;2023-05-16T12:05:32;96506.59;;;16.80;71.21
48386;BME280;34644;47.964;7.982;2023-05-16T12:12:33;96516.16;;;16.81;71.33
48386;BME280;34644;47.964;7.982;2023-05-16T12:19:33;96511.13;;;16.79;71.32
48386;BME280;34644;47.964;7.982;2023-05-16T12:26:34;96522.56;;;16.80;71.27
48386;BME280;34644;47.964;7.982;2023-05-16T12:33:35;96528.38;;;16.82;71.22
48386;BME280;34644;47.964;7.982;2023-05-16T12:40:36;96530.53;;;16.80;71.22
48386;BME280;34644;47.964;7.982;2023-05-16T12:47:38;96530.53;;;16.80;71.22
48386;BME280;34644;47.964;7.982;2023-05-16T12:54:38;96535.84;;;16.80;71.24
48386;BME280;34644;47.964;7.982;2023-05-16T13:01:39;96539.31;;;16.80;71.19
48386;BME280;34644;47.964;7.982;2023-05-16T13:08:40;96535.84;;;16.80;71.21
48386;BME280;34644;47.964;7.982;2023-05-16T13:15:40;96547.56;;;16.79;71.21
48386;BME280;34644;47.964;7.982;2023-05-16T13:22:42;96549.44;;;16.78;71.32
48386;BME280;34644;47.964;7.982;2023-05-16T13:29:43;96558.22;;;16.79;71.22
48386;BME280;34644;47.964;7.982;2023-05-16T13:36:43;96573.66;;;16.77;71.21
48386;BME280;34644;47.964;7.982;2023-05-16T13:43:45;96579.25;;;16.75;71.29
48386;BME280;34644;47.964;7.982;2023-05-16T13:50:45;96581.91;;;16.75;71.09
48386;BME280;34644;47.964;7.982;2023-05-16T13:57:46;96594.44;;;16.75;71.10
48386;BME280;34644;47.964;7.982;2023-05-16T14:04:46;96598.16;;;16.74;71.24
48386;BME280;34644;47.964;7.982;2023-05-16T14:11:47;96615.19;;;16.73;71.08
48386;BME280;34644;47.964;7.982;2023-05-16T14:18:48;96611.75;;;16.72;71.09
48386;BME280;34644;47.964;7.982;2023-05-16T14:25:48;96610.94;;;16.72;70.92
48386;BME280;34644;47.964;7.982;2023-05-16T14:32:48;96606.69;;;16.71;71.05
48386;BME280;34644;47.964;7.982;2023-05-16T14:39:49;96608.28;;;16.72;71.03
48386;BME280;34644;47.964;7.982;2023-05-16T14:46:49;96612.53;;;16.73;71.09
48386;BME280;34644;47.964;7.982;2023-05-16T14:53:50;96621.59;;;16.72;71.12
48386;BME280;34644;47.964;7.982;2023-05-16T15:00:51;96642.06;;;16.71;71.10
48386;BME280;34644;47.964;7.982;2023-05-16T15:07:51;96646.88;;;16.69;71.16
48386;BME280;34644;47.964;7.982;2023-05-16T15:14:51;96653.81;;;16.70;71.21
48386;BME280;34644;47.964;7.982;2023-05-16T15:21:51;96639.94;;;16.68;71.22
48386;BME280;34644;47.964;7.982;2023-05-16T15:28:52;96649.81;;;16.68;71.15
48386;BME280;34644;47.964;7.982;2023-05-16T15:35:57;96654.34;;;16.67;71.14
48386;BME280;34644;47.964;7.982;2023-05-16T15:42:57;96658.84;;;16.67;71.13
48386;BME280;34644;47.964;7.982;2023-05-16T15:49:57;96667.91;;;16.66;71.23
48386;BME280;34644;47.964;7.982;2023-05-16T15:56:57;96673.25;;;16.66;71.15
48386;BME280;34644;47.964;7.982;2023-05-16T16:03:58;96670.31;;;16.67;71.16
48386;BME280;34644;47.964;7.982;2023-05-16T16:10:58;96678.56;;;16.66;71.08
48386;BME280;34644;47.964;7.982;2023-05-16T16:17:58;96675.38;;;16.63;71.08
48386;BME280;34644;47.964;7.982;2023-05-16T16:24:59;96670.31;;;16.62;71.13
48386;BME280;34644;47.964;7.982;2023-05-16T16:31:59;96673.00;;;16.62;71.10
48386;BME280;34644;47.964;7.982;2023-05-16T16:39:00;96677.50;;;16.61;71.17
48386;BME280;34644;47.964;7.982;2023-05-16T16:46:00;96680.16;;;16.61;71.06
48386;BME280;34644;47.964;7.982;2023-05-16T16:53:00;96690.81;;;16.61;71.02
48386;BME280;34644;47.964;7.982;2023-05-16T17:00:03;96696.91;;;16.67;71.55
48386;BME280;34644;47.964;7.982;2023-05-16T17:07:04;96703.81;;;16.68;71.16
48386;BME280;34644;47.964;7.982;2023-05-16T17:14:04;96710.75;;;16.64;71.20
48386;BME280;34644;47.964;7.982;2023-05-16T17:21:05;96725.38;;;16.61;71.35
48386;BME280;34644;47.964;7.982;2023-05-16T17:28:05;96729.13;;;16.60;71.33
48386;BME280;34644;47.964;7.982;2023-05-16T17:35:06;96724.88;;;16.59;71.25
48386;BME280;34644;47.964;7.982;2023-05-16T17:42:06;96725.94;;;16.58;71.33
48386;BME280;34644;47.964;7.982;2023-05-16T17:49:08;96733.13;;;16.58;71.12
48386;BME280;34644;47.964;7.982;2023-05-16T17:56:08;96728.84;;;16.57;71.20
48386;BME280;34644;47.964;7.982;2023-05-16T18:03:09;96738.16;;;16.59;71.26
48386;BME280;34644;47.964;7.982;2023-05-16T18:10:09;96741.09;;;16.58;71.54
48386;BME280;34644;47.964;7.982;2023-05-16T18:17:10;96741.38;;;16.56;71.60
48386;BME280;34644;47.964;7.982;2023-05-16T18:24:13;96745.91;;;16.56;71.45
48386;BME280;34644;47.964;7.982;2023-05-16T18:31:14;96744.81;;;16.57;71.48
48386;BME280;34644;47.964;7.982;2023-05-16T18:38:15;96746.97;;;16.55;71.45
48386;BME280;34644;47.964;7.982;2023-05-16T18:45:16;96754.94;;;16.55;71.37
48386;BME280;34644;47.964;7.982;2023-05-16T18:52:16;96752.53;;;16.53;71.40
48386;BME280;34644;47.964;7.982;2023-05-16T18:59:17;96758.91;;;16.52;71.43
48386;BME280;34644;47.964;7.982;2023-05-16T19:06:17;96765.06;;;16.53;71.32
48386;BME280;34644;47.964;7.982;2023-05-16T19:13:18;96771.16;;;16.53;71.48
48386;BME280;34644;47.964;7.982;2023-05-16T19:20:18;96780.19;;;16.52;71.43
48386;BME280;34644;47.964;7.982;2023-05-16T19:27:18;96787.66;;;16.50;71.48
48386;BME280;34644;47.964;7.982;2023-05-16T19:34:19;96808.16;;;16.50;71.40
48386;BME280;34644;47.964;7.982;2023-05-16T19:41:20;96818.78;;;16.50;71.32
48386;BME280;34644;47.964;7.982;2023-05-16T19:48:21;96822.78;;;16.47;71.37
48386;BME280;34644;47.964;7.982;2023-05-16T19:55:21;96821.16;;;16.46;71.25
48386;BME280;34644;47.964;7.982;2023-05-16T20:02:21;96832.91;;;16.45;71.25
48386;BME280;34644;47.964;7.982;2023-05-16T20:09:21;96842.72;;;16.44;71.18
48386;BME280;34644;47.964;7.982;2023-05-16T20:16:22;96850.97;;;16.43;71.19
48386;BME280;34644;47.964;7.982;2023-05-16T20:23:22;96859.22;;;16.41;71.08
48386;BME280;34644;47.964;7.982;2023-05-16T20:30:22;96869.88;;;16.41;71.02
48386;BME280;34644;47.964;7.982;2023-05-16T20:37:23;96878.91;;;16.40;71.02
48386;BME280;34644;47.964;7.982;2023-05-16T20:44:25;96875.47;;;16.40;70.96
48386;BME280;34644;47.964;7.982;2023-05-16T20:51:28;96877.84;;;16.41;71.07
48386;BME280;34644;47.964;7.982;2023-05-16T20:58:29;96888.75;;;16.40;71.22
48386;BME280;34644;47.964;7.982;2023-05-16T21:05:29;96885.03;;;16.41;71.24
48386;BME280;34644;47.964;7.982;2023-05-16T21:12:31;96886.09;;;16.40;71.32
48386;BME280;34644;47.964;7.982;2023-05-16T21:19:31;96883.44;;;16.40;71.32
48386;BME280;34644;47.964;7.982;2023-05-16T21:26:33;96893.25;;;16.39;71.37
48386;BME280;34644;47.964;7.982;2023-05-16T21:33:33;96895.13;;;16.39;71.48
48386;BME280;34644;47.964;7.982;2023-05-16T21:40:34;96902.31;;;16.38;71.58
48386;BME280;34644;47.964;7.982;2023-05-16T21:47:34;96906.81;;;16.38;71.53
48386;BME280;34644;47.964;7.982;2023-05-16T21:54:35;96919.34;;;16.37;71.57
48386;BME280;34644;47.964;7.982;2023-05-16T22:01:35;96916.94;;;16.36;71.67
48386;BME280;34644;47.964;7.982;2023-05-16T22:08:35;96923.03;;;16.36;71.70
48386;BME280;34644;47.964;7.982;2023-05-16T22:15:35;96933.16;;;16.34;71.75
48386;BME280;34644;47.964;7.982;2023-05-16T22:22:36;96924.13;;;16.35;71.84
48386;BME280;34644;47.964;7.982;2023-05-16T22:29:36;96933.94;;;16.35;71.81
48386;BME280;34644;47.964;7.982;2023-05-16T22:36:39;96931.53;;;16.33;71.74
48386;BME280;34644;47.964;7.982;2023-05-16T22:43:41;96947.25;;;16.35;71.89
48386;BME280;34644;47.964;7.982;2023-05-16T22:50:41;96951.78;;;16.34;71.98
48386;BME280;34644;47.964;7.982;2023-05-16T22:57:41;96957.34;;;16.33;72.11
48386;BME280;34644;47.964;7.982;2023-05-16T23:04:43;96958.97;;;16.34;71.98
48386;BME280;34644;47.964;7.982;2023-05-16T23:11:43;96965.34;;;16.33;72.00
48386;BME280;34644;47.964;7.982;2023-05-16T23:18:43;96961.88;;;16.32;72.11
48386;BME280;34644;47.964;7.982;2023-05-16T23:25:43;96959.22;;;16.32;72.11
48386;BME280;34644;47.964;7.982;2023-05-16T23:32:44;96954.94;;;16.31;72.20
48386;BME280;34644;47.964;7.982;2023-05-16T23:39:44;96953.34;;;16.30;72.12
48386;BME280;34644;47.964;7.982;2023-05-16T23:46:44;96963.19;;;16.30;72.14
48386;BME280;34644;47.964;7.982;2023-05-16T23:53:45;96965.84;;;16.30;72.30
